sensor_id;sensor_type;location;lat;lon;timestamp;pressure;altitude;pressure_sealevel;temperature
11926;BMP180;6022;48.768;18.608;2022-12-07T00:01:43;98118.31;;;3.25
11926;BMP180;6022;48.768;18.608;2022-12-07T00:04:14;98111.72;;;3.23
11926;BMP180;6022;48.768;18.608;2022-12-07T00:06:45;98115.00;;;3.25
11926;BMP180;6022;48.768;18.608;2022-12-07T00:09:16;98114.94;;;3.26
11926;BMP180;6022;48.768;18.608;2022-12-07T00:11:44;98115.75;;;3.27
11926;BMP180;6022;48.768;18.608;2022-12-07T00:14:15;98109.13;;;3.26
11926;BMP180;6022;48.768;18.608;2022-12-07T00:16:44;98110.84;;;3.24
11926;BMP180;6022;48.768;18.608;2022-12-07T00:19:13;98111.69;;;3.24
11926;BMP180;6022;48.768;18.608;2022-12-07T00:21:41;98107.47;;;3.25
11926;BMP180;6022;48.768;18.608;2022-12-07T00:24:10;98106.66;;;3.24
11926;BMP180;6022;48.768;18.608;2022-12-07T00:26:40;98100.81;;;3.24
11926;BMP180;6022;48.768;18.608;2022-12-07T00:29:20;98104.22;;;3.23
11926;BMP180;6022;48.768;18.608;2022-12-07T00:31:48;98108.41;;;3.22
11926;BMP180;6022;48.768;18.608;2022-12-07T00:34:19;98101.72;;;3.23
11926;BMP180;6022;48.768;18.608;2022-12-07T00:36:47;98101.75;;;3.21
11926;BMP180;6022;48.768;18.608;2022-12-07T00:39:15;98104.28;;;3.21
11926;BMP180;6022;48.768;18.608;2022-12-07T00:41:42;98100.16;;;3.20
11926;BMP180;6022;48.768;18.608;2022-12-07T00:44:10;98094.19;;;3.23
11926;BMP180;6022;48.768;18.608;2022-12-07T00:46:37;98087.53;;;3.22
11926;BMP180;6022;48.768;18.608;2022-12-07T00:49:04;98097.56;;;3.22
11926;BMP180;6022;48.768;18.608;2022-12-07T00:51:31;98096.75;;;3.21
11926;BMP180;6022;48.768;18.608;2022-12-07T00:53:58;98096.75;;;3.21
11926;BMP180;6022;48.768;18.608;2022-12-07T00:56:27;98095.88;;;3.22
11926;BMP180;6022;48.768;18.608;2022-12-07T00:58:59;98098.31;;;3.24
11926;BMP180;6022;48.768;18.608;2022-12-07T01:01:29;98090.97;;;3.19
11926;BMP180;6022;48.768;18.608;2022-12-07T01:03:57;98091.75;;;3.21
11926;BMP180;6022;48.768;18.608;2022-12-07T01:06:25;98094.19;;;3.23
11926;BMP180;6022;48.768;18.608;2022-12-07T01:08:53;98091.69;;;3.23
11926;BMP180;6022;48.768;18.608;2022-12-07T01:11:24;98093.25;;;3.25
11926;BMP180;6022;48.768;18.608;2022-12-07T01:13:54;98083.16;;;3.27
11926;BMP180;6022;48.768;18.608;2022-12-07T01:16:24;98081.47;;;3.27
11926;BMP180;6022;48.768;18.608;2022-12-07T01:18:54;98075.66;;;3.27
11926;BMP180;6022;48.768;18.608;2022-12-07T01:21:30;98073.19;;;3.25
11926;BMP180;6022;48.768;18.608;2022-12-07T01:24:06;98070.56;;;3.28
11926;BMP180;6022;48.768;18.608;2022-12-07T01:26:33;98078.16;;;3.27
11926;BMP180;6022;48.768;18.608;2022-12-07T01:29:00;98078.09;;;3.28
11926;BMP180;6022;48.768;18.608;2022-12-07T01:31:28;98078.16;;;3.27
11926;BMP180;6022;48.768;18.608;2022-12-07T01:33:58;98075.66;;;3.27
11926;BMP180;6022;48.768;18.608;2022-12-07T01:36:33;98080.72;;;3.25
11926;BMP180;6022;48.768;18.608;2022-12-07T01:39:05;98078.97;;;3.27
11926;BMP180;6022;48.768;18.608;2022-12-07T01:41:39;98074.03;;;3.26
11926;BMP180;6022;48.768;18.608;2022-12-07T01:46:51;98074.03;;;3.26
11926;BMP180;6022;48.768;18.608;2022-12-07T01:49:32;98071.59;;;3.24
11926;BMP180;6022;48.768;18.608;2022-12-07T01:52:21;98066.56;;;3.24
11926;BMP180;6022;48.768;18.608;2022-12-07T01:54:52;98071.59;;;3.24
11926;BMP180;6022;48.768;18.608;2022-12-07T01:57:21;98068.19;;;3.25
11926;BMP180;6022;48.768;18.608;2022-12-07T01:59:51;98064.06;;;3.24
11926;BMP180;6022;48.768;18.608;2022-12-07T02:02:31;98060.81;;;3.22
11926;BMP180;6022;48.768;18.608;2022-12-07T02:05:03;98054.91;;;3.23
11926;BMP180;6022;48.768;18.608;2022-12-07T02:07:32;98060.66;;;3.25
11926;BMP180;6022;48.768;18.608;2022-12-07T02:10:21;98061.56;;;3.24
11926;BMP180;6022;48.768;18.608;2022-12-07T02:12:59;98061.63;;;3.23
11926;BMP180;6022;48.768;18.608;2022-12-07T02:15:59;98056.56;;;3.24
11926;BMP180;6022;48.768;18.608;2022-12-07T02:28:07;98046.63;;;3.21
11926;BMP180;6022;48.768;18.608;2022-12-07T02:30:46;98043.25;;;3.22
11926;BMP180;6022;48.768;18.608;2022-12-07T02:33:21;98051.59;;;3.23
11926;BMP180;6022;48.768;18.608;2022-12-07T02:36:10;98045.81;;;3.21
11926;BMP180;6022;48.768;18.608;2022-12-07T02:38:48;98049.28;;;3.18
11926;BMP180;6022;48.768;18.608;2022-12-07T02:41:27;98047.53;;;3.20
11926;BMP180;6022;48.768;18.608;2022-12-07T02:44:06;98046.63;;;3.21
11926;BMP180;6022;48.768;18.608;2022-12-07T02:46:42;98040.06;;;3.19
11926;BMP180;6022;48.768;18.608;2022-12-07T02:49:11;98046.63;;;3.21
11926;BMP180;6022;48.768;18.608;2022-12-07T02:51:44;98042.50;;;3.20
11926;BMP180;6022;48.768;18.608;2022-12-07T02:54:17;98042.50;;;3.20
11926;BMP180;6022;48.768;18.608;2022-12-07T02:57:17;98031.59;;;3.21
11926;BMP180;6022;48.768;18.608;2022-12-07T03:00:19;98040.00;;;3.20
11926;BMP180;6022;48.768;18.608;2022-12-07T03:03:00;98040.00;;;3.20
11926;BMP180;6022;48.768;18.608;2022-12-07T03:06:04;98042.50;;;3.20
11926;BMP180;6022;48.768;18.608;2022-12-07T03:17:16;98041.75;;;3.18
11926;BMP180;6022;48.768;18.608;2022-12-07T03:19:46;98041.75;;;3.18
11926;BMP180;6022;48.768;18.608;2022-12-07T03:22:17;98041.06;;;3.15
11926;BMP180;6022;48.768;18.608;2022-12-07T03:24:54;98037.81;;;3.13
11926;BMP180;6022;48.768;18.608;2022-12-07T03:27:37;98040.38;;;3.11
11926;BMP180;6022;48.768;18.608;2022-12-07T03:30:29;98039.56;;;3.11
11926;BMP180;6022;48.768;18.608;2022-12-07T03:33:10;98036.97;;;3.12
11926;BMP180;6022;48.768;18.608;2022-12-07T03:35:52;98035.34;;;3.11
11926;BMP180;6022;48.768;18.608;2022-12-07T03:38:44;98041.19;;;3.12
11926;BMP180;6022;48.768;18.608;2022-12-07T03:41:25;98037.13;;;3.09
11926;BMP180;6022;48.768;18.608;2022-12-07T03:43:55;98042.22;;;3.06
11926;BMP180;6022;48.768;18.608;2022-12-07T03:46:52;98033.16;;;3.04
11926;BMP180;6022;48.768;18.608;2022-12-07T03:52:45;98036.53;;;3.03
11926;BMP180;6022;48.768;18.608;2022-12-07T03:55:22;98035.72;;;3.02
11926;BMP180;6022;48.768;18.608;2022-12-07T03:57:58;98040.72;;;3.02
11926;BMP180;6022;48.768;18.608;2022-12-07T04:00:26;98040.72;;;3.02
11926;BMP180;6022;48.768;18.608;2022-12-07T04:02:55;98032.34;;;3.03
11926;BMP180;6022;48.768;18.608;2022-12-07T04:05:22;98043.88;;;3.07
11926;BMP180;6022;48.768;18.608;2022-12-07T04:07:50;98043.13;;;3.05
11926;BMP180;6022;48.768;18.608;2022-12-07T04:10:18;98027.19;;;3.06
11926;BMP180;6022;48.768;18.608;2022-12-07T04:12:45;98033.09;;;3.05
11926;BMP180;6022;48.768;18.608;2022-12-07T04:15:12;98026.44;;;3.04
11926;BMP180;6022;48.768;18.608;2022-12-07T04:17:39;98038.13;;;3.05
11926;BMP180;6022;48.768;18.608;2022-12-07T04:20:07;98031.34;;;3.07
11926;BMP180;6022;48.768;18.608;2022-12-07T04:22:35;98032.97;;;3.08
11926;BMP180;6022;48.768;18.608;2022-12-07T04:25:02;98022.09;;;3.09
11926;BMP180;6022;48.768;18.608;2022-12-07T04:27:29;98027.09;;;3.09
11926;BMP180;6022;48.768;18.608;2022-12-07T04:29:56;98026.28;;;3.09
11926;BMP180;6022;48.768;18.608;2022-12-07T04:32:24;98033.72;;;3.10
11926;BMP180;6022;48.768;18.608;2022-12-07T04:34:50;98032.84;;;3.11
11926;BMP180;6022;48.768;18.608;2022-12-07T04:37:22;98033.72;;;3.10
11926;BMP180;6022;48.768;18.608;2022-12-07T04:39:49;98033.72;;;3.10
11926;BMP180;6022;48.768;18.608;2022-12-07T04:42:16;98034.56;;;3.11
11926;BMP180;6022;48.768;18.608;2022-12-07T04:44:43;98037.13;;;3.09
11926;BMP180;6022;48.768;18.608;2022-12-07T04:47:11;98042.13;;;3.09
11926;BMP180;6022;48.768;18.608;2022-12-07T04:49:38;98040.38;;;3.11
11926;BMP180;6022;48.768;18.608;2022-12-07T04:52:05;98035.34;;;3.11
11926;BMP180;6022;48.768;18.608;2022-12-07T04:54:32;98031.16;;;3.12
11926;BMP180;6022;48.768;18.608;2022-12-07T04:56:59;98036.97;;;3.12
11926;BMP180;6022;48.768;18.608;2022-12-07T04:59:26;98038.63;;;3.13
11926;BMP180;6022;48.768;18.608;2022-12-07T05:01:53;98033.59;;;3.13
11926;BMP180;6022;48.768;18.608;2022-12-07T05:04:21;98033.56;;;3.15
11926;BMP180;6022;48.768;18.608;2022-12-07T05:06:48;98034.41;;;3.14
11926;BMP180;6022;48.768;18.608;2022-12-07T05:09:15;98036.06;;;3.15
11926;BMP180;6022;48.768;18.608;2022-12-07T05:11:42;98038.50;;;3.16
11926;BMP180;6022;48.768;18.608;2022-12-07T05:14:16;98028.47;;;3.16
11926;BMP180;6022;48.768;18.608;2022-12-07T05:16:47;98028.47;;;3.16
11926;BMP180;6022;48.768;18.608;2022-12-07T05:19:16;98030.91;;;3.18
11926;BMP180;6022;48.768;18.608;2022-12-07T05:21:43;98023.38;;;3.18
11926;BMP180;6022;48.768;18.608;2022-12-07T05:24:13;98022.69;;;3.14
11926;BMP180;6022;48.768;18.608;2022-12-07T05:26:41;98027.66;;;3.16
11926;BMP180;6022;48.768;18.608;2022-12-07T05:29:13;98031.75;;;3.18
11926;BMP180;6022;48.768;18.608;2022-12-07T05:31:41;98030.78;;;3.21
11926;BMP180;6022;48.768;18.608;2022-12-07T05:34:09;98032.41;;;3.22
11926;BMP180;6022;48.768;18.608;2022-12-07T05:36:36;98034.91;;;3.22
11926;BMP180;6022;48.768;18.608;2022-12-07T05:39:03;98036.56;;;3.23
11926;BMP180;6022;48.768;18.608;2022-12-07T05:41:30;98043.19;;;3.24
11926;BMP180;6022;48.768;18.608;2022-12-07T05:44:16;98045.78;;;3.22
11926;BMP180;6022;48.768;18.608;2022-12-07T05:46:43;98040.81;;;3.21
11926;BMP180;6022;48.768;18.608;2022-12-07T05:49:10;98050.09;;;3.19
11926;BMP180;6022;48.768;18.608;2022-12-07T05:51:37;98040.94;;;3.18
11926;BMP180;6022;48.768;18.608;2022-12-07T05:54:04;98049.13;;;3.21
11926;BMP180;6022;48.768;18.608;2022-12-07T05:56:31;98041.63;;;3.21
11926;BMP180;6022;48.768;18.608;2022-12-07T05:58:58;98050.09;;;3.19
11926;BMP180;6022;48.768;18.608;2022-12-07T06:01:44;98055.09;;;3.19
11926;BMP180;6022;48.768;18.608;2022-12-07T06:04:11;98050.03;;;3.20
11926;BMP180;6022;48.768;18.608;2022-12-07T06:06:38;98046.63;;;3.21
11926;BMP180;6022;48.768;18.608;2022-12-07T06:09:06;98046.63;;;3.21
11926;BMP180;6022;48.768;18.608;2022-12-07T06:11:33;98051.66;;;3.21
11926;BMP180;6022;48.768;18.608;2022-12-07T06:14:19;98051.66;;;3.21
11926;BMP180;6022;48.768;18.608;2022-12-07T06:16:46;98053.41;;;3.19
11926;BMP180;6022;48.768;18.608;2022-12-07T06:19:13;98052.44;;;3.22
11926;BMP180;6022;48.768;18.608;2022-12-07T06:21:40;98046.63;;;3.21
11926;BMP180;6022;48.768;18.608;2022-12-07T06:24:10;98070.88;;;3.21
11926;BMP180;6022;48.768;18.608;2022-12-07T06:26:38;98053.34;;;3.21
11926;BMP180;6022;48.768;18.608;2022-12-07T06:29:06;98059.16;;;3.21
11926;BMP180;6022;48.768;18.608;2022-12-07T06:31:36;98058.41;;;3.19
11926;BMP180;6022;48.768;18.608;2022-12-07T06:34:07;98065.06;;;3.20
11926;BMP180;6022;48.768;18.608;2022-12-07T06:36:35;98060.88;;;3.21
11926;BMP180;6022;48.768;18.608;2022-12-07T06:39:04;98071.69;;;3.21
11926;BMP180;6022;48.768;18.608;2022-12-07T06:41:31;98065.88;;;3.21
11926;BMP180;6022;48.768;18.608;2022-12-07T06:43:58;98073.34;;;3.22
11926;BMP180;6022;48.768;18.608;2022-12-07T06:46:25;98069.94;;;3.23
11926;BMP180;6022;48.768;18.608;2022-12-07T06:48:53;98063.16;;;3.25
11926;BMP180;6022;48.768;18.608;2022-12-07T06:51:20;98064.06;;;3.24
11926;BMP180;6022;48.768;18.608;2022-12-07T06:53:47;98062.38;;;3.25
11926;BMP180;6022;48.768;18.608;2022-12-07T06:56:15;98064.06;;;3.24
11926;BMP180;6022;48.768;18.608;2022-12-07T06:58:42;98060.56;;;3.28
11926;BMP180;6022;48.768;18.608;2022-12-07T07:01:15;98065.56;;;3.28
11926;BMP180;6022;48.768;18.608;2022-12-07T07:03:44;98068.81;;;3.30
11926;BMP180;6022;48.768;18.608;2022-12-07T07:06:12;98063.81;;;3.30
11926;BMP180;6022;48.768;18.608;2022-12-07T07:08:39;98068.81;;;3.30
11926;BMP180;6022;48.768;18.608;2022-12-07T07:11:08;98073.69;;;3.33
11926;BMP180;6022;48.768;18.608;2022-12-07T07:13:37;98076.19;;;3.33
11926;BMP180;6022;48.768;18.608;2022-12-07T07:16:05;98072.84;;;3.34
11926;BMP180;6022;48.768;18.608;2022-12-07T07:18:32;98071.88;;;3.37
11926;BMP180;6022;48.768;18.608;2022-12-07T07:21:00;98070.22;;;3.37
11926;BMP180;6022;48.768;18.608;2022-12-07T07:23:27;98071.72;;;3.41
11926;BMP180;6022;48.768;18.608;2022-12-07T07:25:54;98069.97;;;3.43
11926;BMP180;6022;48.768;18.608;2022-12-07T07:28:22;98076.59;;;3.44
11926;BMP180;6022;48.768;18.608;2022-12-07T07:30:49;98085.75;;;3.45
11926;BMP180;6022;48.768;18.608;2022-12-07T07:33:16;98083.25;;;3.45
11926;BMP180;6022;48.768;18.608;2022-12-07T07:35:43;98086.44;;;3.48
11926;BMP180;6022;48.768;18.608;2022-12-07T07:38:10;98088.25;;;3.45
11926;BMP180;6022;48.768;18.608;2022-12-07T07:40:37;98084.00;;;3.47
11926;BMP180;6022;48.768;18.608;2022-12-07T07:43:04;98088.22;;;3.46
11926;BMP180;6022;48.768;18.608;2022-12-07T07:45:31;98089.06;;;3.45
11926;BMP180;6022;48.768;18.608;2022-12-07T07:47:58;98085.50;;;3.51
11926;BMP180;6022;48.768;18.608;2022-12-07T07:50:25;98095.28;;;3.57
11926;BMP180;6022;48.768;18.608;2022-12-07T07:52:53;98096.78;;;3.61
11926;BMP180;6022;48.768;18.608;2022-12-07T07:55:20;98096.66;;;3.64
11926;BMP180;6022;48.768;18.608;2022-12-07T07:57:47;98089.88;;;3.66
11926;BMP180;6022;48.768;18.608;2022-12-07T08:00:21;98100.88;;;3.63
11926;BMP180;6022;48.768;18.608;2022-12-07T08:02:48;98097.41;;;3.66
11926;BMP180;6022;48.768;18.608;2022-12-07T08:05:16;98100.34;;;3.75
11926;BMP180;6022;48.768;18.608;2022-12-07T08:07:43;98099.41;;;3.77
11926;BMP180;6022;48.768;18.608;2022-12-07T08:10:13;98108.44;;;3.81
11926;BMP180;6022;48.768;18.608;2022-12-07T08:12:43;98105.75;;;3.86
11926;BMP180;6022;48.768;18.608;2022-12-07T08:15:30;98104.72;;;3.90
11926;BMP180;6022;48.768;18.608;2022-12-07T08:17:58;98102.97;;;3.92
11926;BMP180;6022;48.768;18.608;2022-12-07T08:20:26;98108.41;;;4.01
11926;BMP180;6022;48.768;18.608;2022-12-07T08:22:53;98107.88;;;4.13
11926;BMP180;6022;48.768;18.608;2022-12-07T08:25:21;98104.94;;;4.23
11926;BMP180;6022;48.768;18.608;2022-12-07T08:27:50;98099.47;;;4.32
11926;BMP180;6022;48.768;18.608;2022-12-07T08:30:19;98105.75;;;4.42
11926;BMP180;6022;48.768;18.608;2022-12-07T08:32:47;98112.78;;;4.52
11926;BMP180;6022;48.768;18.608;2022-12-07T08:35:15;98113.34;;;4.59
11926;BMP180;6022;48.768;18.608;2022-12-07T08:37:43;98109.34;;;4.55
11926;BMP180;6022;48.768;18.608;2022-12-07T08:40:12;98114.56;;;4.50
11926;BMP180;6022;48.768;18.608;2022-12-07T08:42:43;98114.44;;;4.53
11926;BMP180;6022;48.768;18.608;2022-12-07T08:45:15;98123.25;;;4.62
11926;BMP180;6022;48.768;18.608;2022-12-07T08:47:57;98127.59;;;4.77
11926;BMP180;6022;48.768;18.608;2022-12-07T08:50:27;98125.13;;;4.75
11926;BMP180;6022;48.768;18.608;2022-12-07T08:52:57;98113.72;;;4.87
11926;BMP180;6022;48.768;18.608;2022-12-07T08:55:27;98128.03;;;4.85
11926;BMP180;6022;48.768;18.608;2022-12-07T08:57:55;98124.03;;;4.81
11926;BMP180;6022;48.768;18.608;2022-12-07T09:00:23;98116.72;;;4.76
11926;BMP180;6022;48.768;18.608;2022-12-07T09:02:51;98121.88;;;4.73
11926;BMP180;6022;48.768;18.608;2022-12-07T09:05:18;98121.06;;;4.73
11926;BMP180;6022;48.768;18.608;2022-12-07T09:07:49;98121.00;;;4.74
11926;BMP180;6022;48.768;18.608;2022-12-07T09:10:18;98105.03;;;4.75
11926;BMP180;6022;48.768;18.608;2022-12-07T09:12:45;98110.63;;;4.82
11926;BMP180;6022;48.768;18.608;2022-12-07T09:15:12;98104.50;;;4.87
11926;BMP180;6022;48.768;18.608;2022-12-07T09:17:40;98111.25;;;5.03
11926;BMP180;6022;48.768;18.608;2022-12-07T09:20:07;98110.69;;;5.15
11926;BMP180;6022;48.768;18.608;2022-12-07T09:22:34;98102.91;;;5.20
11926;BMP180;6022;48.768;18.608;2022-12-07T09:25:03;98102.63;;;5.25
11926;BMP180;6022;48.768;18.608;2022-12-07T09:27:30;98108.69;;;5.22
11926;BMP180;6022;48.768;18.608;2022-12-07T09:29:59;98107.38;;;5.15
11926;BMP180;6022;48.768;18.608;2022-12-07T09:32:27;98105.72;;;5.14
11926;BMP180;6022;48.768;18.608;2022-12-07T09:34:55;98102.78;;;5.23
11926;BMP180;6022;48.768;18.608;2022-12-07T09:37:22;98102.63;;;5.25
11926;BMP180;6022;48.768;18.608;2022-12-07T09:39:49;98105.63;;;5.33
11926;BMP180;6022;48.768;18.608;2022-12-07T09:42:32;98093.56;;;5.40
11926;BMP180;6022;48.768;18.608;2022-12-07T09:45:02;98092.44;;;5.45
11926;BMP180;6022;48.768;18.608;2022-12-07T09:47:33;98091.53;;;5.46
11926;BMP180;6022;48.768;18.608;2022-12-07T09:50:11;98100.41;;;5.36
11926;BMP180;6022;48.768;18.608;2022-12-07T09:52:40;98100.34;;;5.21
11926;BMP180;6022;48.768;18.608;2022-12-07T09:55:19;98101.78;;;5.08
11926;BMP180;6022;48.768;18.608;2022-12-07T09:57:48;98099.19;;;4.93
11926;BMP180;6022;48.768;18.608;2022-12-07T10:00:21;98093.31;;;4.76
11926;BMP180;6022;48.768;18.608;2022-12-07T10:03:02;98091.16;;;4.68
11926;BMP180;6022;48.768;18.608;2022-12-07T10:05:38;98082.25;;;4.61
11926;BMP180;6022;48.768;18.608;2022-12-07T10:08:11;98080.41;;;4.65
11926;BMP180;6022;48.768;18.608;2022-12-07T10:10:40;98082.03;;;4.66
11926;BMP180;6022;48.768;18.608;2022-12-07T10:13:14;98082.72;;;4.69
11926;BMP180;6022;48.768;18.608;2022-12-07T10:15:57;98069.47;;;4.66
11926;BMP180;6022;48.768;18.608;2022-12-07T10:18:37;98076.66;;;4.73
11926;BMP180;6022;48.768;18.608;2022-12-07T10:23:39;98072.38;;;4.75
11926;BMP180;6022;48.768;18.608;2022-12-07T10:26:28;98067.28;;;4.77
11926;BMP180;6022;48.768;18.608;2022-12-07T10:29:01;98070.69;;;4.76
11926;BMP180;6022;48.768;18.608;2022-12-07T10:31:28;98061.59;;;4.73
11926;BMP180;6022;48.768;18.608;2022-12-07T10:33:59;98068.19;;;4.76
11926;BMP180;6022;48.768;18.608;2022-12-07T10:36:38;98064.84;;;4.75
11926;BMP180;6022;48.768;18.608;2022-12-07T10:39:17;98068.38;;;4.71
11926;BMP180;6022;48.768;18.608;2022-12-07T10:42:01;98055.25;;;4.66
11926;BMP180;6022;48.768;18.608;2022-12-07T10:44:33;98056.84;;;4.67
11926;BMP180;6022;48.768;18.608;2022-12-07T10:59:30;98055.91;;;4.70
11926;BMP180;6022;48.768;18.608;2022-12-07T11:03:15;98057.59;;;4.69
11926;BMP180;6022;48.768;18.608;2022-12-07T11:05:53;98065.19;;;4.68
11926;BMP180;6022;48.768;18.608;2022-12-07T11:17:02;98040.06;;;4.68
11926;BMP180;6022;48.768;18.608;2022-12-07T11:22:51;98033.06;;;4.57
11926;BMP180;6022;48.768;18.608;2022-12-07T11:31:17;98030.63;;;4.73
11926;BMP180;6022;48.768;18.608;2022-12-07T11:37:20;98029.41;;;4.81
11926;BMP180;6022;48.768;18.608;2022-12-07T11:39:54;98032.00;;;4.80
11926;BMP180;6022;48.768;18.608;2022-12-07T11:42:26;98025.31;;;4.79
11926;BMP180;6022;48.768;18.608;2022-12-07T11:45:15;98019.38;;;4.81
11926;BMP180;6022;48.768;18.608;2022-12-07T11:48:09;98019.19;;;4.84
11926;BMP180;6022;48.768;18.608;2022-12-07T11:50:48;98018.78;;;4.93
11926;BMP180;6022;48.768;18.608;2022-12-07T11:53:32;98022.63;;;5.00
11926;BMP180;6022;48.768;18.608;2022-12-07T11:58:51;98018.34;;;5.02
11926;BMP180;6022;48.768;18.608;2022-12-07T12:06:54;98024.97;;;5.03
11926;BMP180;6022;48.768;18.608;2022-12-07T12:09:39;98019.81;;;4.89
11926;BMP180;6022;48.768;18.608;2022-12-07T12:21:16;98016.81;;;4.64
11926;BMP180;6022;48.768;18.608;2022-12-07T12:24:01;98018.44;;;4.65
11926;BMP180;6022;48.768;18.608;2022-12-07T12:26:33;98020.19;;;4.63
11926;BMP180;6022;48.768;18.608;2022-12-07T12:29:06;98021.09;;;4.62
11926;BMP180;6022;48.768;18.608;2022-12-07T12:31:40;98018.31;;;4.68
11926;BMP180;6022;48.768;18.608;2022-12-07T12:34:40;98017.63;;;4.65
11926;BMP180;6022;48.768;18.608;2022-12-07T12:42:51;98019.28;;;4.48
11926;BMP180;6022;48.768;18.608;2022-12-07T12:45:29;98016.16;;;4.43
11926;BMP180;6022;48.768;18.608;2022-12-07T12:48:03;98014.69;;;4.39
11926;BMP180;6022;48.768;18.608;2022-12-07T12:50:37;98016.72;;;4.31
11926;BMP180;6022;48.768;18.608;2022-12-07T12:56:13;98025.53;;;4.21
11926;BMP180;6022;48.768;18.608;2022-12-07T12:58:45;98022.28;;;4.19
11926;BMP180;6022;48.768;18.608;2022-12-07T13:04:03;98020.25;;;4.27
11926;BMP180;6022;48.768;18.608;2022-12-07T13:06:42;98020.09;;;4.30
11926;BMP180;6022;48.768;18.608;2022-12-07T13:09:25;98028.38;;;4.32
11926;BMP180;6022;48.768;18.608;2022-12-07T13:12:05;98019.97;;;4.33
11926;BMP180;6022;48.768;18.608;2022-12-07T13:14:58;98025.13;;;4.30
11926;BMP180;6022;48.768;18.608;2022-12-07T13:20:02;98020.25;;;4.27
11926;BMP180;6022;48.768;18.608;2022-12-07T13:25:11;98032.88;;;4.25
11926;BMP180;6022;48.768;18.608;2022-12-07T13:27:41;98039.50;;;4.26
11926;BMP180;6022;48.768;18.608;2022-12-07T13:30:20;98039.44;;;4.28
11926;BMP180;6022;48.768;18.608;2022-12-07T13:32:56;98046.84;;;4.31
11926;BMP180;6022;48.768;18.608;2022-12-07T13:35:36;98047.44;;;4.36
11926;BMP180;6022;48.768;18.608;2022-12-07T13:38:27;98049.94;;;4.36
11926;BMP180;6022;48.768;18.608;2022-12-07T13:41:16;98042.56;;;4.33
11926;BMP180;6022;48.768;18.608;2022-12-07T13:46:20;98041.09;;;4.29
11926;BMP180;6022;48.768;18.608;2022-12-07T13:48:50;98045.50;;;4.24
11926;BMP180;6022;48.768;18.608;2022-12-07T13:51:26;98041.44;;;4.21
11926;BMP180;6022;48.768;18.608;2022-12-07T13:54:08;98041.50;;;4.20
11926;BMP180;6022;48.768;18.608;2022-12-07T13:56:36;98038.81;;;4.23
11926;BMP180;6022;48.768;18.608;2022-12-07T13:59:14;98039.66;;;4.23
11926;BMP180;6022;48.768;18.608;2022-12-07T14:01:46;98047.25;;;4.22
11926;BMP180;6022;48.768;18.608;2022-12-07T14:04:34;98049.03;;;4.20
11926;BMP180;6022;48.768;18.608;2022-12-07T14:07:26;98038.75;;;4.24
11926;BMP180;6022;48.768;18.608;2022-12-07T14:10:06;98042.16;;;4.23
11926;BMP180;6022;48.768;18.608;2022-12-07T14:12:37;98046.44;;;4.21
11926;BMP180;6022;48.768;18.608;2022-12-07T14:15:04;98045.81;;;4.16
11926;BMP180;6022;48.768;18.608;2022-12-07T14:17:32;98043.53;;;4.12
11926;BMP180;6022;48.768;18.608;2022-12-07T14:20:02;98047.66;;;4.13
11926;BMP180;6022;48.768;18.608;2022-12-07T14:22:38;98041.81;;;4.13
11926;BMP180;6022;48.768;18.608;2022-12-07T14:25:19;98047.66;;;4.13
11926;BMP180;6022;48.768;18.608;2022-12-07T14:30:25;98049.41;;;4.11
11926;BMP180;6022;48.768;18.608;2022-12-07T14:32:58;98052.06;;;4.08
11926;BMP180;6022;48.768;18.608;2022-12-07T14:35:28;98049.56;;;4.08
11926;BMP180;6022;48.768;18.608;2022-12-07T14:37:55;98051.34;;;4.06
11926;BMP180;6022;48.768;18.608;2022-12-07T14:40:26;98050.56;;;4.04
11926;BMP180;6022;48.768;18.608;2022-12-07T14:45:29;98046.56;;;4.00
11926;BMP180;6022;48.768;18.608;2022-12-07T14:47:56;98048.25;;;4.00
11926;BMP180;6022;48.768;18.608;2022-12-07T14:50:52;98043.28;;;3.98
11926;BMP180;6022;48.768;18.608;2022-12-07T14:53:48;98050.97;;;3.95
11926;BMP180;6022;48.768;18.608;2022-12-07T14:56:24;98055.25;;;3.93
11926;BMP180;6022;48.768;18.608;2022-12-07T14:58:51;98041.06;;;3.92
11926;BMP180;6022;48.768;18.608;2022-12-07T15:01:18;98041.13;;;3.91
11926;BMP180;6022;48.768;18.608;2022-12-07T15:03:46;98047.09;;;3.88
11926;BMP180;6022;48.768;18.608;2022-12-07T15:06:17;98052.91;;;3.89
11926;BMP180;6022;48.768;18.608;2022-12-07T15:08:45;98047.22;;;3.85
11926;BMP180;6022;48.768;18.608;2022-12-07T15:11:17;98043.84;;;3.86
11926;BMP180;6022;48.768;18.608;2022-12-07T15:13:44;98046.41;;;3.85
11926;BMP180;6022;48.768;18.608;2022-12-07T15:16:31;98057.25;;;3.85
11926;BMP180;6022;48.768;18.608;2022-12-07T15:19:25;98054.00;;;3.83
11926;BMP180;6022;48.768;18.608;2022-12-07T15:21:56;98069.88;;;3.84
11926;BMP180;6022;48.768;18.608;2022-12-07T15:24:24;98069.19;;;3.80
11926;BMP180;6022;48.768;18.608;2022-12-07T15:26:52;98074.19;;;3.80
11926;BMP180;6022;48.768;18.608;2022-12-07T15:29:20;98084.25;;;3.80
11926;BMP180;6022;48.768;18.608;2022-12-07T15:31:51;98075.91;;;3.80
11926;BMP180;6022;48.768;18.608;2022-12-07T15:34:27;98079.22;;;3.80
11926;BMP180;6022;48.768;18.608;2022-12-07T15:37:07;98076.72;;;3.80
11926;BMP180;6022;48.768;18.608;2022-12-07T15:39:38;98075.97;;;3.78
11926;BMP180;6022;48.768;18.608;2022-12-07T15:42:05;98071.75;;;3.79
11926;BMP180;6022;48.768;18.608;2022-12-07T15:44:34;98083.50;;;3.78
11926;BMP180;6022;48.768;18.608;2022-12-07T15:47:19;98074.31;;;3.77
11926;BMP180;6022;48.768;18.608;2022-12-07T15:49:47;98077.72;;;3.76
11926;BMP180;6022;48.768;18.608;2022-12-07T15:52:15;98081.03;;;3.77
11926;BMP180;6022;48.768;18.608;2022-12-07T15:54:43;98076.88;;;3.76
11926;BMP180;6022;48.768;18.608;2022-12-07T15:57:13;98081.09;;;3.75
11926;BMP180;6022;48.768;18.608;2022-12-07T15:59:42;98072.81;;;3.74
11926;BMP180;6022;48.768;18.608;2022-12-07T16:02:13;98077.84;;;3.74
11926;BMP180;6022;48.768;18.608;2022-12-07T16:04:41;98084.56;;;3.73
11926;BMP180;6022;48.768;18.608;2022-12-07T16:07:08;98087.13;;;3.72
11926;BMP180;6022;48.768;18.608;2022-12-07T16:09:41;98078.78;;;3.71
11926;BMP180;6022;48.768;18.608;2022-12-07T16:12:14;98085.38;;;3.74
11926;BMP180;6022;48.768;18.608;2022-12-07T16:18:35;98079.72;;;3.69
11926;BMP180;6022;48.768;18.608;2022-12-07T16:21:03;98074.03;;;3.65
11926;BMP180;6022;48.768;18.608;2022-12-07T16:23:32;98072.44;;;3.63
11926;BMP180;6022;48.768;18.608;2022-12-07T16:26:14;98081.63;;;3.64
11926;BMP180;6022;48.768;18.608;2022-12-07T16:28:42;98064.06;;;3.64
11926;BMP180;6022;48.768;18.608;2022-12-07T16:31:15;98074.03;;;3.65
11926;BMP180;6022;48.768;18.608;2022-12-07T16:33:43;98067.38;;;3.64
11926;BMP180;6022;48.768;18.608;2022-12-07T16:36:13;98067.38;;;3.64
11926;BMP180;6022;48.768;18.608;2022-12-07T16:39:03;98066.56;;;3.64